Flight Track Log - Related Links

Times and Time Zones

All times are in EDT time to prevent confusion due to time zone crossing. See the ASH3732 flight status page for this flight to view local times or setup timezone preferences in your user account.

Time Position Orientation Groundspeed Altitude Reporting Facility
EDT Latitude Longitude Course Direction KTS MPH feet Rate Location/Type
Tue 09:01:19 AM 38.9500 -77.5167 237° Southwest 172 198 1,600  Level Potomac TRACON
Tue 09:02:19 AM 38.9167 -77.5833 237° Southwest 251 289 2,800 2,015 Climbing Potomac TRACON
Tue 09:03:30 AM 38.9014 -77.6883 259° West 260 299 6,000 2,931 Climbing Washington Center
Tue 09:04:30 AM 38.8914 -77.7839 262° West 275 316 9,200 2,311 Climbing Washington Center
Tue 09:05:32 AM 38.8858 -77.8583 265° West 275 316 10,700 1,623 Climbing Washington Center
Tue 09:06:32 AM 38.8728 -77.9861 263° West 300 345 12,500 1,932 Climbing Washington Center
Tue 09:07:30 AM 38.8622 -78.1056 264° West 325 374 14,500 1,815 Climbing Washington Center
Tue 09:08:31 AM 38.8531 -78.2306 265° West 345 397 16,100 1,537 Climbing Washington Center
Tue 09:09:31 AM 38.8522 -78.3611 270° West 360 414 17,600 1,488 Climbing Washington Center
Tue 09:10:32 AM 38.8514 -78.4944 270° West 370 426 19,100 1,462 Climbing Washington Center
Tue 09:11:30 AM 38.8500 -78.6303 269° West 376 433 20,500 1,424 Climbing Washington Center
Tue 09:12:30 AM 38.8483 -78.7717 269° West 387 445 21,900 1,190 Climbing Washington Center
Tue 09:13:31 AM 38.8447 -78.9128 268° West 394 453 22,900 942 Climbing Washington Center
Tue 09:14:31 AM 38.8425 -79.0619 269° West 407 468 23,800 992 Climbing Washington Center
Tue 09:15:32 AM 38.8422 -79.2164 270° West 424 488 24,900 958 Climbing Washington Center
Tue 09:16:30 AM 38.8375 -79.3681 268° West 431 496 25,700 958 Climbing Washington Center
Tue 09:17:31 AM 38.8344 -79.5225 269° West 443 510 26,800 992 Climbing Washington Center
Tue 09:18:31 AM 38.8328 -79.7036 269° West 448 516 27,700 942 Climbing Washington Center
Tue 09:19:32 AM 38.8292 -79.8661 268° West 453 521 28,700 843 Climbing Washington Center
Tue 09:20:32 AM 38.8236 -80.0150 267° West 459 528 29,400 712 Climbing Washington Center
Tue 09:21:30 AM 38.8197 -80.1772 268° West 459 528 30,100 655 Climbing Washington Center
Tue 09:22:31 AM 38.8150 -80.3528 268° West 459 528 30,700 622 Climbing Washington Center
Tue 09:23:45 AM 38.8083 -80.5567 268° West 468 539 31,500 618 Climbing Indianapolis Center
Tue 09:24:47 AM 38.8025 -80.7239 267° West 468 539 32,100 629 Climbing Indianapolis Center
Tue 09:25:49 AM 38.7978 -80.8897 268° West 467 537 32,800 726 Climbing Indianapolis Center
Tue 09:26:51 AM 38.7919 -81.0519 267° West 459 528 33,600 581 Climbing Indianapolis Center
Tue 09:27:53 AM 38.7869 -81.2161 268° West 461 531 34,000 194 Climbing Indianapolis Center
Tue 09:28:55 AM 38.7808 -81.4150 268° West 470 541 34,000  Level Indianapolis Center
Tue 09:29:57 AM 38.7736 -81.5719 267° West 479 551 34,000  Level Indianapolis Center
Tue 09:30:59 AM 38.7672 -81.7494 267° West 486 559 34,000  Level Indianapolis Center
Tue 09:32:01 AM 38.7600 -81.9178 267° West 478 550 34,000  Level Indianapolis Center
Tue 09:33:03 AM 38.7519 -82.1200 267° West 476 548 34,000  Level Indianapolis Center
Tue 09:34:05 AM 38.7458 -82.2878 267° West 473 544 34,000  Level Indianapolis Center
Tue 09:35:07 AM 38.7383 -82.4558 267° West 473 544 34,000  Level Indianapolis Center
Tue 09:36:09 AM 38.7317 -82.6253 267° West 477 549 34,000  Level Indianapolis Center
Tue 09:37:11 AM 38.7239 -82.7953 267° West 478 550 34,000 290 Level Indianapolis Center
Tue 09:38:13 AM 38.7175 -82.9650 267° West 479 551 34,600 871 Climbing Indianapolis Center
Tue 09:39:15 AM 38.7083 -83.1622 267° West 464 534 35,800 1,016 Climbing Indianapolis Center
Tue 09:40:17 AM 38.7064 -83.3206 269° West 456 525 36,700 968 Climbing Indianapolis Center
Tue 09:41:19 AM 38.7156 -83.4761 274° West 438 504 37,800 629 Climbing Indianapolis Center
Tue 09:42:21 AM 38.7231 -83.6314 274° West 432 497 38,000 97 Climbing Indianapolis Center
Tue 09:43:23 AM 38.7303 -83.7903 273° West 438 504 38,000  Level Indianapolis Center
Tue 09:44:25 AM 38.7383 -83.9528 274° West 450 518 38,000  Level Indianapolis Center
Tue 09:45:27 AM 38.7458 -84.1169 273° West 457 526 38,000  Level Indianapolis Center
Tue 09:46:29 AM 38.7542 -84.3089 273° West 459 528 38,000  Level Indianapolis Center
Tue 09:47:31 AM 38.7617 -84.4744 273° West 460 529 38,000  Level Indianapolis Center
Tue 09:48:34 AM 38.7672 -84.6258 273° West 462 532 38,000  Level Indianapolis Center
Tue 09:49:36 AM 38.7747 -84.7892 273° West 461 531 38,000  Level Indianapolis Center
Tue 09:50:38 AM 38.7825 -84.9856 273° West 461 531 38,000  Level Indianapolis Center
Tue 09:51:40 AM 38.7889 -85.1500 273° West 462 532 38,000  Level Indianapolis Center
Tue 09:52:42 AM 38.7944 -85.3144 273° West 462 532 38,000  Level Indianapolis Center
Tue 09:53:44 AM 38.7997 -85.4797 272° West 464 534 38,000  Level Indianapolis Center
Tue 09:54:46 AM 38.8047 -85.6450 272° West 465 535 38,000  Level Indianapolis Center
Tue 09:55:48 AM 38.8094 -85.8111 272° West 467 537 38,000  Level Indianapolis Center
Tue 09:56:50 AM 38.8164 -86.0031 273° West 469 540 38,000  Level Indianapolis Center
Tue 09:57:52 AM 38.8203 -86.1683 272° West 466 536 38,000  Level Indianapolis Center
Tue 09:58:54 AM 38.8250 -86.3342 272° West 466 536 38,000  Level Indianapolis Center
Tue 09:59:56 AM 38.8306 -86.5014 272° West 469 540 38,000  Level Indianapolis Center
Tue 10:00:58 AM 38.8339 -86.6681 272° West 469 540 38,000  Level Indianapolis Center
Tue 10:02:00 AM 38.8386 -86.8694 272° West 472 543 38,000  Level Indianapolis Center
Tue 10:03:02 AM 38.8419 -87.0372 272° West 473 544 38,000  Level Indianapolis Center
Tue 10:04:04 AM 38.8453 -87.2053 272° West 474 545 38,000  Level Indianapolis Center
Tue 10:05:06 AM 38.8481 -87.3717 271° West 470 541 38,000  Level Indianapolis Center
Tue 10:06:08 AM 38.8506 -87.5414 271° West 475 547 38,000  Level Indianapolis Center
Tue 10:07:10 AM 38.8542 -87.7408 271° West 468 539 38,000  Level Indianapolis Center
Tue 10:08:12 AM 38.8558 -87.9078 271° West 468 539 38,000  Level Indianapolis Center
Tue 10:09:14 AM 38.8581 -88.0733 271° West 465 535 38,000  Level Indianapolis Center
Tue 10:10:16 AM 38.8600 -88.2389 271° West 466 536 38,000  Level Indianapolis Center
Tue 10:11:19 AM 38.8608 -88.4067 270° West 468 539 38,000  Level Indianapolis Center
Tue 10:12:21 AM 38.8625 -88.5717 271° West 465 535 38,000  Level Indianapolis Center
Tue 10:13:23 AM 38.8633 -88.7375 270° West 465 535 38,000  Level Indianapolis Center
Tue 10:14:25 AM 38.9000 -88.9258 284° West 456 525 38,000  Level Indianapolis Center
Tue 10:15:27 AM 38.9372 -89.0822 287° West 456 525 38,000  Level Indianapolis Center
Tue 10:16:29 AM 38.9714 -89.2392 286° West 456 525 38,000  Level Indianapolis Center
Tue 10:17:31 AM 39.0058 -89.3944 286° West 452 520 38,000  Level Indianapolis Center
Tue 10:18:52 AM 39.0586 -89.6228 287° West 455 524 38,000  Level Kansas City Center
Tue 10:19:55 AM 39.0928 -89.7778 286° West 454 522 38,000  Level Kansas City Center
Tue 10:20:57 AM 39.1292 -89.9439 286° West 450 518 38,000  Level Kansas City Center
Tue 10:21:59 AM 39.1575 -90.0753 286° West 447 514 38,000  Level Kansas City Center
Tue 10:23:01 AM 39.1986 -90.2614 286° West 452 520 38,000  Level Kansas City Center
Tue 10:24:03 AM 39.2317 -90.4169 285° West 454 522 38,000  Level Kansas City Center
Tue 10:25:05 AM 39.2647 -90.5725 285° West 454 522 38,000  Level Kansas City Center
Tue 10:26:07 AM 39.2975 -90.7264 285° West 451 519 38,000  Level Kansas City Center
Tue 10:27:09 AM 39.3294 -90.8831 285° West 453 521 38,000  Level Kansas City Center
Tue 10:28:11 AM 39.3703 -91.0697 286° West 453 521 38,000  Level Kansas City Center
Tue 10:29:13 AM 39.4028 -91.2261 285° West 453 521 38,000  Level Kansas City Center
Tue 10:30:15 AM 39.4350 -91.3828 285° West 454 522 38,000  Level Kansas City Center
Tue 10:31:17 AM 39.4667 -91.5400 285° West 453 521 38,000  Level Kansas City Center
Tue 10:32:19 AM 39.4994 -91.7056 284° West 454 522 38,000  Level Kansas City Center
Tue 10:33:21 AM 39.5319 -91.8631 285° West 456 525 38,000  Level Kansas City Center
Tue 10:34:23 AM 39.5628 -92.0225 284° West 458 527 38,000  Level Kansas City Center
Tue 10:35:25 AM 39.6014 -92.2108 285° West 454 522 38,000  Level Kansas City Center
Tue 10:36:27 AM 39.6325 -92.3717 284° West 458 527 38,000  Level Kansas City Center
Tue 10:37:29 AM 39.6531 -92.5333 279° West 455 524 38,000  Level Kansas City Center
Tue 10:38:31 AM 39.6503 -92.6983 269° West 457 526 38,000 -290 Level Kansas City Center
Tue 10:39:33 AM 39.6492 -92.8622 270° West 456 525 37,400 -2,371 Descending Kansas City Center
Tue 10:40:35 AM 39.6458 -93.0269 269° West 457 526 33,100 -4,403 Descending Kansas City Center
Tue 10:41:37 AM 39.6433 -93.2217 269° West 454 522 28,300 -4,306 Descending Kansas City Center
Tue 10:42:39 AM 39.6406 -93.3814 269° West 450 518 24,200 -3,871 Descending Kansas City Center
Tue 10:43:41 AM 39.6378 -93.5383 269° West 443 510 20,300 -3,871 Descending Kansas City Center
Tue 10:44:43 AM 39.6350 -93.6828 269° West 409 471 16,200 -3,968 Descending Kansas City Center
Tue 10:45:45 AM 39.6328 -93.8431 269° West 385 443 12,100 -2,661 Descending Kansas City Center
Tue 10:46:47 AM 39.5944 -93.9478 245° Southwest 335 386 10,700 -1,355 Descending Kansas City Center
Tue 10:47:49 AM 39.5464 -94.0458 238° Southwest 290 334 9,300 -1,645 Descending Kansas City Center
Tue 10:48:51 AM 39.5203 -94.1303 248° West 267 307 7,300 -1,104 Descending Kansas City Center
Tue 10:49:54 AM 39.5042 -94.2242 257° West 277 319 7,000 -144 Descending Kansas City Center
Tue 10:50:56 AM 39.4994 -94.3183 266° West 232 267 7,000  Level Kansas City Center
Tue 10:51:58 AM 39.5033 -94.3978 274° West 232 267 7,000 -387 Level Kansas City Center
Tue 10:53:00 AM 39.5069 -94.4881 273° West 226 260 6,200 -823 Descending Kansas City Center
Tue 10:54:02 AM 39.4997 -94.5639 263° West 223 257 5,300 -1,161 Descending Kansas City Center
Tue 10:55:04 AM 39.4794 -94.6397 251° West 208 239 3,800 -1,065 Descending Kansas City Center
Tue 10:56:06 AM 39.4428 -94.6725 215° Southwest 163 188 3,100 -677 Descending Kansas City Center
Tue 10:57:08 AM 39.4017 -94.6967 204° Southwest 151 174 2,400 -581 Descending Kansas City Center
Tue 10:58:10 AM 39.3683 -94.7075 194° South 130 150 1,900 -629 Descending Kansas City Center
Tue 10:59:12 AM 39.3292 -94.7186 192° South 129 148 1,100 -484 Descending Kansas City Center
Tue 11:00:14 AM 39.3036 -94.7258 192° South 90 104 900 -194 Descending Kansas City Center

Login

Don't have an account? Register now (free) for customized features, flight alerts, and more!